createdAt,value
2022-08-18T00:00:33.058Z,25.80
2022-08-18T00:03:27.130Z,25.20
2022-08-18T00:05:52.241Z,25.17
2022-08-18T00:08:18.797Z,25.97
2022-08-18T00:10:45.455Z,24.23
2022-08-18T00:13:12.036Z,22.17
2022-08-18T00:15:41.424Z,22.40
2022-08-18T00:18:15.441Z,24.60
2022-08-18T00:20:42.125Z,27.50
2022-08-18T00:23:09.413Z,25.67
2022-08-18T00:25:35.982Z,23.77
2022-08-18T00:28:02.714Z,23.97
2022-08-18T00:30:29.283Z,22.53
2022-08-18T00:32:58.721Z,22.00
2022-08-18T00:35:35.095Z,22.97
2022-08-18T00:38:04.561Z,22.47
2022-08-18T00:40:51.920Z,23.20
2022-08-18T00:43:27.426Z,20.83
2022-08-18T00:45:54.010Z,20.27
2022-08-18T00:48:20.667Z,22.13
2022-08-18T00:50:57.320Z,21.37
2022-08-18T00:53:39.406Z,21.73
2022-08-18T00:56:14.561Z,21.30
2022-08-18T00:58:49.032Z,21.57
2022-08-18T01:01:19.480Z,20.37
2022-08-18T01:03:52.901Z,23.27
2022-08-18T01:06:22.383Z,23.37
2022-08-18T01:08:49.163Z,22.27
2022-08-18T01:11:15.766Z,22.37
2022-08-18T01:13:43.087Z,20.50
2022-08-18T01:16:28.177Z,18.03
2022-08-18T01:19:13.503Z,17.07
2022-08-18T01:21:51.726Z,21.27
2022-08-18T01:24:22.085Z,21.43
2022-08-18T01:26:52.077Z,22.80
2022-08-18T01:29:19.812Z,19.57
2022-08-18T01:31:56.381Z,17.83
2022-08-18T01:34:25.787Z,18.13
2022-08-18T01:36:54.888Z,20.77
2022-08-18T01:41:17.511Z,23.10
2022-08-18T01:42:09.551Z,20.17
2022-08-18T01:44:36.891Z,22.03
2022-08-18T01:47:04.148Z,21.30
2022-08-18T01:49:30.727Z,24.67
2022-08-18T01:51:57.291Z,22.90
2022-08-18T01:54:23.896Z,23.73
2022-08-18T01:56:52.497Z,22.90
2022-08-18T01:59:19.357Z,21.10
2022-08-18T02:01:48.933Z,22.03
2022-08-18T02:04:35.714Z,20.50
2022-08-18T02:07:07.471Z,20.37
2022-08-18T02:09:34.989Z,21.17
2022-08-18T02:12:01.923Z,21.77
2022-08-18T02:14:31.389Z,27.00
2022-08-18T02:17:01.705Z,25.13
2022-08-18T02:19:38.486Z,25.30
2022-08-18T02:22:06.664Z,22.13
2022-08-18T02:24:33.284Z,22.13
2022-08-18T02:27:00.065Z,22.70
2022-08-18T02:29:26.957Z,21.13
2022-08-18T02:31:53.590Z,21.70
2022-08-18T02:34:20.253Z,27.50
2022-08-18T02:36:46.870Z,28.47
2022-08-18T02:39:14.529Z,25.27
2022-08-18T02:41:41.139Z,26.20
2022-08-18T02:44:08.242Z,23.80
2022-08-18T02:46:35.320Z,22.20
2022-08-18T02:49:02.389Z,21.33
2022-08-18T02:51:29.141Z,21.33
2022-08-18T02:53:58.983Z,22.63
2022-08-18T02:56:33.656Z,24.20
2022-08-18T02:59:12.658Z,24.57
2022-08-18T03:01:42.898Z,26.03
2022-08-18T03:04:12.534Z,28.27
2022-08-18T03:06:39.543Z,28.07
2022-08-18T03:09:07.850Z,23.47
2022-08-18T03:11:35.442Z,26.53
2022-08-18T03:14:02.568Z,24.90
2022-08-18T03:16:32.972Z,22.27
2022-08-18T03:19:01.769Z,24.80
2022-08-18T03:21:30.518Z,25.33
2022-08-18T03:24:00.669Z,26.93
2022-08-18T03:26:30.248Z,27.97
2022-08-18T03:28:58.666Z,27.57
2022-08-18T03:31:27.695Z,26.37
2022-08-18T03:33:56.092Z,21.70
2022-08-18T03:36:28.941Z,24.97
2022-08-18T03:38:55.559Z,26.20
2022-08-18T03:41:57.474Z,25.33
2022-08-18T03:44:13.189Z,25.40
2022-08-18T03:46:42.360Z,26.43
2022-08-18T03:49:09.523Z,25.10
2022-08-18T03:51:36.828Z,25.73
2022-08-18T03:54:05.101Z,23.83
2022-08-18T03:56:38.270Z,24.80
2022-08-18T03:59:23.055Z,25.63
2022-08-18T04:01:51.802Z,26.07
2022-08-18T04:04:21.557Z,24.47
2022-08-18T04:06:53.898Z,27.73
2022-08-18T04:09:22.375Z,24.43
2022-08-18T04:11:49.606Z,23.27
2022-08-18T04:14:19.619Z,23.53
2022-08-18T04:16:47.762Z,27.10
2022-08-18T04:19:26.931Z,25.90
2022-08-18T04:21:56.861Z,24.53
2022-08-18T04:24:25.937Z,25.20
2022-08-18T04:26:53.290Z,27.33
2022-08-18T04:29:21.303Z,24.03
2022-08-18T04:31:50.088Z,27.13
2022-08-18T04:34:17.722Z,26.73
2022-08-18T04:36:44.503Z,25.10
2022-08-18T04:39:13.325Z,30.13
2022-08-18T04:41:43.445Z,26.37
2022-08-18T04:44:11.978Z,27.17
2022-08-18T04:46:42.069Z,26.67
2022-08-18T04:49:10.263Z,25.17
2022-08-18T04:52:34.440Z,25.27
2022-08-18T04:54:38.625Z,24.77
2022-08-18T04:57:10.238Z,26.43
2022-08-18T04:59:38.174Z,26.67
2022-08-18T05:02:11.504Z,27.27
2022-08-18T05:04:47.092Z,26.43
2022-08-18T05:07:16.318Z,28.60
2022-08-18T05:09:43.315Z,29.53
2022-08-18T05:12:15.545Z,28.03
2022-08-18T05:14:47.030Z,30.87
2022-08-18T05:17:15.925Z,30.33
2022-08-18T05:19:44.647Z,29.63
2022-08-18T05:22:17.708Z,29.80
2022-08-18T05:24:45.544Z,26.73
2022-08-18T05:27:13.004Z,30.10
2022-08-18T05:29:41.538Z,28.57
2022-08-18T05:32:30.566Z,29.83
2022-08-18T05:35:07.001Z,30.00
2022-08-18T05:37:50.129Z,34.87
2022-08-18T05:40:17.091Z,61.97
2022-08-18T05:42:43.989Z,62.23
2022-08-18T05:45:16.707Z,65.30
2022-08-18T05:47:44.632Z,70.53
2022-08-18T05:50:17.090Z,71.83
2022-08-18T05:52:51.678Z,74.07
2022-08-18T05:55:53.881Z,67.53
2022-08-18T05:58:33.520Z,69.63
2022-08-18T06:01:10.573Z,66.23
2022-08-18T06:03:56.602Z,71.90
2022-08-18T06:06:29.713Z,68.00
2022-08-18T06:09:11.787Z,70.70
2022-08-18T06:11:38.693Z,68.63
2022-08-18T06:14:05.810Z,68.73
2022-08-18T06:16:32.932Z,71.87
2022-08-18T06:19:03.284Z,70.97
2022-08-18T06:21:47.775Z,65.33
2022-08-18T06:24:35.378Z,66.83
2022-08-18T06:27:17.659Z,64.53
2022-08-18T06:30:07.508Z,66.17
2022-08-18T06:32:43.864Z,63.20
2022-08-18T06:35:19.895Z,65.93
2022-08-18T06:38:25.139Z,64.57
2022-08-18T06:41:02.474Z,67.07
2022-08-18T06:43:32.386Z,66.43
2022-08-18T06:45:59.037Z,63.97
2022-08-18T06:48:41.074Z,63.33
2022-08-18T06:51:09.776Z,61.07
2022-08-18T06:53:57.184Z,59.20
2022-08-18T06:56:46.898Z,62.67
2022-08-18T06:59:32.960Z,63.43
2022-08-18T07:02:02.328Z,61.63
2022-08-18T07:04:44.369Z,61.20
2022-08-18T07:07:50.804Z,60.53
2022-08-18T07:10:17.403Z,60.93
2022-08-18T07:12:44.033Z,59.70
2022-08-18T07:15:13.462Z,56.37
2022-08-18T07:17:43.263Z,56.57
2022-08-18T07:20:21.351Z,54.57
2022-08-18T07:23:08.262Z,52.17
2022-08-18T07:25:42.979Z,51.43
2022-08-18T07:28:38.330Z,52.20
2022-08-18T07:31:35.066Z,48.53
2022-08-18T07:34:08.058Z,51.73
2022-08-18T07:36:49.337Z,48.40
2022-08-18T07:39:25.841Z,47.13
2022-08-18T07:42:31.969Z,49.07
2022-08-18T07:45:17.873Z,48.07
2022-08-18T07:47:56.549Z,48.37
2022-08-18T07:50:57.642Z,49.40
2022-08-18T07:53:30.903Z,47.97
2022-08-18T07:56:04.922Z,48.87
2022-08-18T07:58:41.716Z,46.83
2022-08-18T08:01:27.658Z,48.47
2022-08-18T08:04:25.723Z,49.20
2022-08-18T08:07:23.802Z,49.30
2022-08-18T08:10:26.626Z,46.93
2022-08-18T08:13:22.294Z,48.60
2022-08-18T08:16:23.054Z,50.37
2022-08-18T08:18:58.520Z,47.90
2022-08-18T08:21:32.047Z,48.53
2022-08-18T08:24:25.994Z,47.93
2022-08-18T08:27:11.915Z,46.93
2022-08-18T08:29:57.330Z,48.37
2022-08-18T08:32:38.171Z,47.23
2022-08-18T08:35:16.031Z,46.83
2022-08-18T08:38:42.367Z,47.93
2022-08-18T08:41:19.873Z,46.63
2022-08-18T08:43:53.967Z,44.17
2022-08-18T08:46:29.922Z,42.70
2022-08-18T08:49:07.456Z,42.07
2022-08-18T08:51:39.545Z,42.30
2022-08-18T08:54:14.011Z,42.43
2022-08-18T08:56:47.904Z,41.47
2022-08-18T08:59:17.258Z,42.87
2022-08-18T09:02:05.815Z,43.47
2022-08-18T09:04:54.757Z,40.97
2022-08-18T09:07:51.039Z,39.73
2022-08-18T09:10:59.566Z,41.93
2022-08-18T09:13:29.427Z,38.80
2022-08-18T09:16:17.545Z,38.77
2022-08-18T09:19:21.247Z,35.03
2022-08-18T09:22:18.819Z,34.57
2022-08-18T09:24:55.827Z,34.63
2022-08-18T09:28:08.839Z,35.57
2022-08-18T09:31:14.142Z,34.70
2022-08-18T09:34:11.009Z,32.90
2022-08-18T09:37:02.983Z,32.50
2022-08-18T09:39:56.867Z,32.73
2022-08-18T09:42:29.869Z,30.70
2022-08-18T09:45:00.779Z,30.77
2022-08-18T09:47:30.420Z,29.80
2022-08-18T09:50:38.196Z,29.93
2022-08-18T09:53:32.035Z,31.60
2022-08-18T09:56:01.650Z,31.20
2022-08-18T09:58:52.928Z,31.67
2022-08-18T10:01:36.687Z,39.17
2022-08-18T10:04:15.444Z,37.97
2022-08-18T10:06:48.925Z,39.17
2022-08-18T10:09:36.552Z,37.27
2022-08-18T10:15:33.184Z,36.07
2022-08-18T10:18:28.094Z,35.90
2022-08-18T10:24:36.981Z,36.00
2022-08-18T10:27:13.353Z,32.90
2022-08-18T10:29:50.882Z,34.77
2022-08-18T10:32:23.821Z,32.87
2022-08-18T10:34:53.013Z,33.17
2022-08-18T10:37:49.029Z,31.90
2022-08-18T10:40:21.347Z,31.13
2022-08-18T10:42:59.993Z,34.47
2022-08-18T10:45:31.380Z,32.10
2022-08-18T10:48:11.969Z,32.80
2022-08-18T10:51:21.516Z,29.77
2022-08-18T10:54:11.313Z,29.47
2022-08-18T10:56:55.617Z,27.33
2022-08-18T10:59:54.540Z,26.83
2022-08-18T11:02:49.564Z,27.80
2022-08-18T11:05:21.992Z,26.43
2022-08-18T11:07:56.507Z,24.33
2022-08-18T11:10:57.712Z,23.90
2022-08-18T11:14:20.712Z,26.03
2022-08-18T11:17:26.369Z,24.70
2022-08-18T11:19:54.173Z,18.57
2022-08-18T11:22:31.459Z,25.93
2022-08-18T11:25:01.114Z,29.60
2022-08-18T11:27:35.376Z,28.53
2022-08-18T11:30:04.991Z,25.03
2022-08-18T11:32:34.937Z,27.93
2022-08-18T11:35:10.705Z,27.93
2022-08-18T11:37:53.833Z,29.03
2022-08-18T11:41:02.284Z,27.23
2022-08-18T11:43:16.037Z,29.13
2022-08-18T11:45:53.938Z,27.50
2022-08-18T11:48:36.067Z,28.70
2022-08-18T11:51:25.378Z,27.93
2022-08-18T11:54:02.274Z,29.17
2022-08-18T11:56:35.867Z,27.00
2022-08-18T11:59:53.605Z,25.40
2022-08-18T12:02:20.816Z,27.63
2022-08-18T12:04:57.486Z,29.67
2022-08-18T12:07:35.774Z,28.87
2022-08-18T12:10:18.049Z,28.03
2022-08-18T12:12:51.819Z,26.87
2022-08-18T12:15:24.776Z,24.93
2022-08-18T12:17:53.621Z,26.57
2022-08-18T12:20:21.472Z,25.30
2022-08-18T12:22:49.568Z,24.50
2022-08-18T12:28:05.565Z,27.50
2022-08-18T12:30:37.785Z,26.13
2022-08-18T12:33:12.324Z,21.00
2022-08-18T12:38:26.578Z,19.23
2022-08-18T12:40:53.378Z,18.17
2022-08-18T12:43:20.368Z,18.93
2022-08-18T12:45:47.384Z,18.27
2022-08-18T12:48:14.087Z,18.80
2022-08-18T12:50:54.539Z,18.03
2022-08-18T12:56:33.202Z,17.90
2022-08-18T12:59:05.143Z,16.63
2022-08-18T13:01:33.491Z,19.00
2022-08-18T13:04:11.530Z,16.20
2022-08-18T13:06:46.955Z,18.63
2022-08-18T13:09:48.066Z,17.10
2022-08-18T13:12:18.394Z,15.30
2022-08-18T13:14:46.697Z,14.77
2022-08-18T13:17:32.379Z,16.47
2022-08-18T13:20:06.324Z,15.43
2022-08-18T13:22:34.435Z,15.93
2022-08-18T13:25:03.988Z,13.10
2022-08-18T13:27:32.937Z,14.30
2022-08-18T13:30:02.992Z,15.47
2022-08-18T13:32:58.605Z,13.13
2022-08-18T13:35:29.904Z,12.20
2022-08-18T13:38:12.355Z,14.80
2022-08-18T13:40:48.193Z,12.77
2022-08-18T13:43:17.365Z,13.40
2022-08-18T13:45:48.148Z,13.93
2022-08-18T13:48:19.803Z,15.60
2022-08-18T13:50:46.998Z,14.03
2022-08-18T13:53:20.451Z,13.43
2022-08-18T13:55:48.322Z,14.23
2022-08-18T13:58:20.978Z,14.80
2022-08-18T14:00:52.188Z,13.30
2022-08-18T14:03:42.863Z,13.63
2022-08-18T14:06:07.512Z,14.10
2022-08-18T14:08:34.783Z,14.53
2022-08-18T14:11:03.246Z,13.43
2022-08-18T14:13:30.445Z,12.77
2022-08-18T14:16:10.597Z,13.37
2022-08-18T14:18:37.191Z,13.23
2022-08-18T14:21:24.502Z,12.50
2022-08-18T14:24:10.182Z,13.73
2022-08-18T14:26:50.498Z,12.80
2022-08-18T14:29:46.391Z,13.27
2022-08-18T14:32:06.305Z,12.40
2022-08-18T14:34:32.932Z,10.67
2022-08-18T14:36:59.588Z,14.57
2022-08-18T14:39:26.206Z,14.80
2022-08-18T14:41:55.749Z,12.43
2022-08-18T14:44:24.780Z,12.07
2022-08-18T14:46:57.493Z,11.17
2022-08-18T14:49:28.294Z,12.93
2022-08-18T14:51:57.772Z,11.43
2022-08-18T14:54:28.365Z,14.63
2022-08-18T14:56:55.579Z,12.80
2022-08-18T14:59:23.573Z,11.73
2022-08-18T15:01:51.310Z,14.80
2022-08-18T15:04:19.551Z,13.07
2022-08-18T15:06:56.316Z,12.17
2022-08-18T15:09:27.326Z,13.33
2022-08-18T15:11:56.285Z,12.73
2022-08-18T15:14:26.649Z,12.87
2022-08-18T15:17:00.826Z,12.43
2022-08-18T15:19:59.689Z,13.53
2022-08-18T15:22:33.018Z,11.73
2022-08-18T15:25:18.268Z,12.83
2022-08-18T15:27:48.042Z,10.60
2022-08-18T15:30:20.217Z,13.53
2022-08-18T15:32:49.906Z,12.90
2022-08-18T15:35:17.681Z,11.93
2022-08-18T15:37:47.525Z,12.50
2022-08-18T15:40:30.105Z,13.20
2022-08-18T15:43:06.903Z,13.33
2022-08-18T15:45:43.489Z,14.63
2022-08-18T15:48:26.812Z,12.67
2022-08-18T15:50:54.389Z,10.83
2022-08-18T15:53:29.847Z,11.53
2022-08-18T15:55:57.552Z,9.13
2022-08-18T15:58:26.871Z,12.37
2022-08-18T16:00:55.306Z,11.23
2022-08-18T16:03:22.007Z,10.60
2022-08-18T16:05:53.216Z,9.13
2022-08-18T16:08:22.401Z,9.20
2022-08-18T16:10:49.003Z,9.93
2022-08-18T16:13:15.808Z,9.57
2022-08-18T16:15:46.699Z,10.17
2022-08-18T16:18:14.560Z,9.40
2022-08-18T16:20:42.737Z,8.83
2022-08-18T16:23:10.655Z,8.27
2022-08-18T16:25:39.006Z,8.40
2022-08-18T16:28:05.929Z,7.57
2022-08-18T16:30:33.544Z,9.17
2022-08-18T16:33:03.030Z,8.37
2022-08-18T16:35:31.149Z,7.80
2022-08-18T16:38:06.400Z,8.80
2022-08-18T16:40:33.114Z,7.13
2022-08-18T16:43:00.744Z,5.93
2022-08-18T16:45:28.394Z,6.87
2022-08-18T16:47:55.748Z,6.23
2022-08-18T16:50:23.500Z,6.03
2022-08-18T16:52:50.485Z,6.27
2022-08-18T16:55:17.368Z,6.83
2022-08-18T16:58:04.384Z,6.40
2022-08-18T17:00:55.202Z,6.57
2022-08-18T17:03:41.933Z,7.10
2022-08-18T17:06:13.845Z,6.50
2022-08-18T17:08:41.788Z,7.03
2022-08-18T17:11:12.561Z,6.67
2022-08-18T17:13:40.282Z,8.63
2022-08-18T17:16:08.608Z,7.27
2022-08-18T17:18:36.059Z,8.97
2022-08-18T17:21:04.416Z,8.70
2022-08-18T17:23:32.221Z,8.00
2022-08-18T17:26:02.548Z,7.73
2022-08-18T17:28:53.795Z,8.40
2022-08-18T17:31:24.361Z,8.23
2022-08-18T17:33:54.729Z,8.50
2022-08-18T17:36:33.425Z,8.13
2022-08-18T17:39:02.699Z,7.97
2022-08-18T17:41:29.476Z,6.97
2022-08-18T17:44:00.777Z,7.23
2022-08-18T17:46:33.030Z,8.23
2022-08-18T17:49:24.785Z,9.30
2022-08-18T17:51:55.912Z,7.43
2022-08-18T17:54:43.453Z,7.23
2022-08-18T17:57:23.873Z,7.30
2022-08-18T18:00:11.920Z,6.73
2022-08-18T18:02:45.048Z,7.40
2022-08-18T18:05:15.984Z,6.80
2022-08-18T18:07:50.274Z,6.70
2022-08-18T18:11:02.426Z,6.80
2022-08-18T18:13:32.332Z,6.97
2022-08-18T18:16:02.018Z,7.33
2022-08-18T18:18:41.853Z,6.73
2022-08-18T18:21:08.830Z,7.17
2022-08-18T18:23:41.212Z,7.40
2022-08-18T18:26:28.700Z,6.97
2022-08-18T18:29:21.526Z,7.17
2022-08-18T18:32:02.496Z,7.00
2022-08-18T18:34:40.923Z,6.70
2022-08-18T18:37:33.000Z,6.33
2022-08-18T18:40:05.726Z,7.10
2022-08-18T18:42:35.102Z,7.30
2022-08-18T18:45:09.384Z,7.23
2022-08-18T18:47:45.435Z,6.67
2022-08-18T18:50:21.237Z,6.53
2022-08-18T18:53:20.281Z,6.83
2022-08-18T18:56:07.254Z,7.20
2022-08-18T18:58:48.147Z,7.93
2022-08-18T19:01:32.977Z,7.00
2022-08-18T19:04:13.877Z,7.53
2022-08-18T19:07:10.795Z,7.57
2022-08-18T19:09:56.909Z,7.37
2022-08-18T19:12:29.609Z,7.70
2022-08-18T19:15:04.868Z,7.23
2022-08-18T19:17:49.097Z,7.17
2022-08-18T19:20:23.227Z,7.20
2022-08-18T19:22:54.403Z,6.80
2022-08-18T19:25:30.778Z,7.23
2022-08-18T19:28:20.552Z,7.93
2022-08-18T19:30:50.546Z,8.07
2022-08-18T19:33:45.437Z,7.73
2022-08-18T19:36:37.853Z,7.87
2022-08-18T19:39:23.863Z,7.63
2022-08-18T19:42:15.725Z,7.70
2022-08-18T19:45:15.424Z,7.20
2022-08-18T19:47:53.109Z,6.60
2022-08-18T19:50:31.042Z,6.70
2022-08-18T19:53:04.857Z,7.10
2022-08-18T19:55:38.380Z,7.00
2022-08-18T19:58:23.345Z,6.10
2022-08-18T20:01:01.783Z,6.10
2022-08-18T20:03:52.058Z,5.80
2022-08-18T20:06:34.662Z,6.00
2022-08-18T20:09:30.138Z,5.27
2022-08-18T20:12:34.986Z,5.23
2022-08-18T20:15:13.786Z,5.43
2022-08-18T20:17:57.776Z,5.40
2022-08-18T20:20:37.998Z,5.10
2022-08-18T20:23:32.394Z,4.97
2022-08-18T20:25:59.325Z,5.20
2022-08-18T20:28:38.944Z,5.33
2022-08-18T20:31:15.594Z,4.73
2022-08-18T20:34:03.930Z,5.13
2022-08-18T20:36:36.560Z,4.67
2022-08-18T20:39:32.185Z,4.60
2022-08-18T20:41:59.841Z,5.40
2022-08-18T20:44:34.381Z,5.07
2022-08-18T20:47:18.473Z,5.00
2022-08-18T20:50:12.972Z,4.80
2022-08-18T20:52:48.737Z,5.70
2022-08-18T20:55:30.767Z,5.30
2022-08-18T20:58:05.219Z,5.40
2022-08-18T21:00:36.796Z,5.47
2022-08-18T21:03:10.753Z,5.70
2022-08-18T21:05:40.073Z,5.47
2022-08-18T21:08:16.434Z,6.13
2022-08-18T21:10:56.070Z,5.50
2022-08-18T21:13:39.826Z,5.67
2022-08-18T21:16:12.066Z,4.77
2022-08-18T21:18:40.203Z,5.03
2022-08-18T21:21:16.128Z,4.70
2022-08-18T21:23:56.636Z,4.77
2022-08-18T21:26:23.741Z,4.97
2022-08-18T21:28:54.813Z,4.90
2022-08-18T21:31:44.145Z,4.67
2022-08-18T21:34:33.176Z,4.73
2022-08-18T21:37:06.358Z,4.70
2022-08-18T21:39:33.382Z,4.60
2022-08-18T21:42:01.426Z,4.83
2022-08-18T21:44:44.399Z,4.60
2022-08-18T21:47:32.299Z,4.50
2022-08-18T21:50:09.508Z,4.17
2022-08-18T21:52:39.698Z,4.43
2022-08-18T21:55:17.353Z,4.13
2022-08-18T21:58:00.812Z,4.70
2022-08-18T22:00:32.055Z,4.30
2022-08-18T22:03:20.394Z,4.87
2022-08-18T22:06:13.738Z,4.27
2022-08-18T22:09:25.314Z,4.87
2022-08-18T22:12:36.363Z,4.70
2022-08-18T22:15:16.676Z,4.13
2022-08-18T22:17:53.787Z,5.10
2022-08-18T22:20:43.643Z,4.77
2022-08-18T22:23:31.813Z,5.33
2022-08-18T22:26:29.523Z,4.33
2022-08-18T22:29:01.330Z,4.47
2022-08-18T22:31:31.581Z,5.00
2022-08-18T22:34:02.391Z,4.60
2022-08-18T22:36:34.697Z,4.67
2022-08-18T22:39:01.586Z,4.33
2022-08-18T22:41:29.859Z,4.60
2022-08-18T22:43:58.234Z,5.30
2022-08-18T22:46:25.204Z,5.43
2022-08-18T22:48:53.042Z,4.80
2022-08-18T22:51:23.253Z,5.20
2022-08-18T22:53:50.490Z,5.47
2022-08-18T22:56:22.680Z,5.17
2022-08-18T22:59:00.856Z,4.40
2022-08-18T23:01:39.397Z,5.00
2022-08-18T23:04:06.584Z,5.30
2022-08-18T23:06:33.619Z,5.37
2022-08-18T23:09:03.015Z,4.50
2022-08-18T23:11:31.209Z,4.50
2022-08-18T23:14:00.923Z,5.00
2022-08-18T23:16:31.475Z,5.10
2022-08-18T23:19:03.048Z,5.30
2022-08-18T23:21:34.885Z,5.10
2022-08-18T23:24:05.994Z,5.00
2022-08-18T23:26:33.894Z,5.07
2022-08-18T23:29:00.569Z,4.70
2022-08-18T23:31:27.683Z,4.73
2022-08-18T23:33:54.282Z,4.50
2022-08-18T23:36:20.925Z,4.70
2022-08-18T23:38:47.538Z,4.50
2022-08-18T23:41:16.211Z,4.70
2022-08-18T23:43:42.869Z,4.87
2022-08-18T23:46:25.567Z,5.00
2022-08-18T23:48:53.061Z,4.40
2022-08-18T23:51:39.386Z,4.20
2022-08-18T23:54:09.642Z,5.33
2022-08-18T23:56:37.706Z,4.60
2022-08-18T23:59:06.668Z,4.73
